sensor_id;sensor_type;location;lat;lon;timestamp;pressure;altitude;pressure_sealevel;temperature;humidity
8292;BME280;4184;42.724;23.308;2022-08-01T00:02:11;95294.56;;;21.97;51.05
8292;BME280;4184;42.724;23.308;2022-08-01T00:04:38;95294.22;;;21.86;51.46
8292;BME280;4184;42.724;23.308;2022-08-01T00:07:06;95298.88;;;21.78;51.67
8292;BME280;4184;42.724;23.308;2022-08-01T00:09:33;95307.19;;;21.68;51.92
8292;BME280;4184;42.724;23.308;2022-08-01T00:12:01;95297.88;;;21.59;52.19
8292;BME280;4184;42.724;23.308;2022-08-01T00:14:31;95300.09;;;21.49;52.54
8292;BME280;4184;42.724;23.308;2022-08-01T00:16:59;95303.56;;;21.43;52.76
8292;BME280;4184;42.724;23.308;2022-08-01T00:19:27;95308.03;;;21.36;52.88
8292;BME280;4184;42.724;23.308;2022-08-01T00:21:56;95304.16;;;21.25;53.22
8292;BME280;4184;42.724;23.308;2022-08-01T00:24:23;95303.13;;;21.19;53.51
8292;BME280;4184;42.724;23.308;2022-08-01T00:26:50;95306.75;;;21.12;53.48
8292;BME280;4184;42.724;23.308;2022-08-01T00:29:18;95303.13;;;21.06;53.79
8292;BME280;4184;42.724;23.308;2022-08-01T00:31:45;95305.16;;;21.04;53.69
8292;BME280;4184;42.724;23.308;2022-08-01T00:34:13;95297.03;;;20.99;53.75
8292;BME280;4184;42.724;23.308;2022-08-01T00:36:42;95303.94;;;21.00;53.88
8292;BME280;4184;42.724;23.308;2022-08-01T00:39:09;95298.84;;;20.98;53.82
8292;BME280;4184;42.724;23.308;2022-08-01T00:41:37;95298.25;;;20.96;53.99
8292;BME280;4184;42.724;23.308;2022-08-01T00:44:05;95294.19;;;20.94;53.90
8292;BME280;4184;42.724;23.308;2022-08-01T00:46:33;95290.16;;;20.91;53.83
8292;BME280;4184;42.724;23.308;2022-08-01T00:49:02;95286.13;;;20.95;53.77
8292;BME280;4184;42.724;23.308;2022-08-01T00:51:30;95285.72;;;20.98;53.64
8292;BME280;4184;42.724;23.308;2022-08-01T00:54:01;95288.16;;;21.00;53.72
8292;BME280;4184;42.724;23.308;2022-08-01T00:56:29;95286.53;;;20.99;53.59
8292;BME280;4184;42.724;23.308;2022-08-01T00:58:57;95278.03;;;20.97;53.72
8292;BME280;4184;42.724;23.308;2022-08-01T01:01:25;95280.06;;;20.95;53.66
8292;BME280;4184;42.724;23.308;2022-08-01T01:03:53;95269.94;;;20.92;53.93
8292;BME280;4184;42.724;23.308;2022-08-01T01:06:29;95270.34;;;20.89;53.89
8292;BME280;4184;42.724;23.308;2022-08-01T01:09:19;95269.16;;;20.85;53.88
8292;BME280;4184;42.724;23.308;2022-08-01T01:11:59;95270.75;;;20.86;53.82
8292;BME280;4184;42.724;23.308;2022-08-01T01:14:33;95264.91;;;20.84;53.87
8292;BME280;4184;42.724;23.308;2022-08-01T01:17:03;95264.66;;;20.79;54.08
8292;BME280;4184;42.724;23.308;2022-08-01T01:19:37;95263.06;;;20.78;54.00
8292;BME280;4184;42.724;23.308;2022-08-01T01:22:20;95259.00;;;20.75;54.07
8292;BME280;4184;42.724;23.308;2022-08-01T01:25:02;95260.44;;;20.78;53.91
8292;BME280;4184;42.724;23.308;2022-08-01T01:27:39;95250.53;;;20.80;53.82
8292;BME280;4184;42.724;23.308;2022-08-01T01:30:11;95247.91;;;20.80;53.85
8292;BME280;4184;42.724;23.308;2022-08-01T01:32:41;95249.91;;;20.78;53.71
8292;BME280;4184;42.724;23.308;2022-08-01T01:35:16;95245.47;;;20.78;53.67
8292;BME280;4184;42.724;23.308;2022-08-01T01:37:46;95241.63;;;20.81;53.71
8292;BME280;4184;42.724;23.308;2022-08-01T01:40:16;95242.84;;;20.78;53.66
8292;BME280;4184;42.724;23.308;2022-08-01T01:42:45;95244.47;;;20.79;53.70
8292;BME280;4184;42.724;23.308;2022-08-01T01:45:15;95244.25;;;20.81;53.53
8292;BME280;4184;42.724;23.308;2022-08-01T01:47:43;95241.63;;;20.81;53.53
8292;BME280;4184;42.724;23.308;2022-08-01T01:50:11;95242.63;;;20.80;53.64
8292;BME280;4184;42.724;23.308;2022-08-01T01:52:41;95235.56;;;20.80;53.59
8292;BME280;4184;42.724;23.308;2022-08-01T01:55:10;95235.19;;;20.83;53.49
8292;BME280;4184;42.724;23.308;2022-08-01T01:57:41;95239.63;;;20.83;53.34
8292;BME280;4184;42.724;23.308;2022-08-01T02:00:11;95235.56;;;20.80;53.57
8292;BME280;4184;42.724;23.308;2022-08-01T02:02:41;95236.38;;;20.81;53.57
8292;BME280;4184;42.724;23.308;2022-08-01T02:05:11;95231.94;;;20.81;53.46
8292;BME280;4184;42.724;23.308;2022-08-01T02:07:40;95228.28;;;20.82;53.38
8292;BME280;4184;42.724;23.308;2022-08-01T02:10:10;95235.56;;;20.80;53.43
8292;BME280;4184;42.724;23.308;2022-08-01T02:12:42;95224.44;;;20.78;53.66
8292;BME280;4184;42.724;23.308;2022-08-01T02:15:13;95225.25;;;20.79;53.40
8292;BME280;4184;42.724;23.308;2022-08-01T02:17:46;95230.50;;;20.79;53.46
8292;BME280;4184;42.724;23.308;2022-08-01T02:20:14;95229.50;;;20.73;53.72
8292;BME280;4184;42.724;23.308;2022-08-01T02:22:46;95232.34;;;20.71;53.67
8292;BME280;4184;42.724;23.308;2022-08-01T02:25:18;95233.34;;;20.70;53.59
8292;BME280;4184;42.724;23.308;2022-08-01T02:27:53;95231.94;;;20.68;53.72
8292;BME280;4184;42.724;23.308;2022-08-01T02:30:23;95229.06;;;20.63;53.65
8292;BME280;4184;42.724;23.308;2022-08-01T02:32:59;95228.69;;;20.59;53.69
8292;BME280;4184;42.724;23.308;2022-08-01T02:35:30;95229.09;;;20.56;53.60
8292;BME280;4184;42.724;23.308;2022-08-01T02:38:01;95240.00;;;20.53;53.75
8292;BME280;4184;42.724;23.308;2022-08-01T02:40:31;95229.25;;;20.48;53.61
8292;BME280;4184;42.724;23.308;2022-08-01T02:43:02;95234.91;;;20.45;53.56
8292;BME280;4184;42.724;23.308;2022-08-01T02:45:32;95229.25;;;20.41;53.77
8292;BME280;4184;42.724;23.308;2022-08-01T02:48:11;95229.81;;;20.37;53.68
8292;BME280;4184;42.724;23.308;2022-08-01T02:50:44;95223.34;;;20.33;53.70
8292;BME280;4184;42.724;23.308;2022-08-01T02:53:13;95223.72;;;20.30;53.63
8292;BME280;4184;42.724;23.308;2022-08-01T02:55:43;95224.94;;;20.27;53.62
8292;BME280;4184;42.724;23.308;2022-08-01T02:58:15;95222.91;;;20.23;53.79
8292;BME280;4184;42.724;23.308;2022-08-01T03:00:44;95224.94;;;20.21;53.70
8292;BME280;4184;42.724;23.308;2022-08-01T03:03:14;95227.34;;;20.16;53.95
8292;BME280;4184;42.724;23.308;2022-08-01T03:05:43;95226.09;;;20.11;53.80
8292;BME280;4184;42.724;23.308;2022-08-01T03:08:12;95232.34;;;20.10;53.87
8292;BME280;4184;42.724;23.308;2022-08-01T03:10:44;95230.72;;;20.09;54.00
8292;BME280;4184;42.724;23.308;2022-08-01T03:13:14;95228.91;;;20.03;54.01
8292;BME280;4184;42.724;23.308;2022-08-01T03:15:44;95229.06;;;19.95;54.34
8292;BME280;4184;42.724;23.308;2022-08-01T03:18:16;95230.06;;;19.88;54.55
8292;BME280;4184;42.724;23.308;2022-08-01T03:20:45;95232.00;;;19.79;54.43
8292;BME280;4184;42.724;23.308;2022-08-01T03:23:14;95228.78;;;19.77;54.72
8292;BME280;4184;42.724;23.308;2022-08-01T03:25:43;95222.31;;;19.73;54.88
8292;BME280;4184;42.724;23.308;2022-08-01T03:28:14;95227.13;;;19.69;54.73
8292;BME280;4184;42.724;23.308;2022-08-01T03:30:44;95229.97;;;19.68;55.04
8292;BME280;4184;42.724;23.308;2022-08-01T03:33:13;95221.09;;;19.69;54.65
8292;BME280;4184;42.724;23.308;2022-08-01T03:35:47;95214.44;;;19.73;54.60
8292;BME280;4184;42.724;23.308;2022-08-01T03:38:18;95229.59;;;19.77;54.59
8292;BME280;4184;42.724;23.308;2022-08-01T03:40:49;95226.41;;;19.82;54.51
8292;BME280;4184;42.724;23.308;2022-08-01T03:43:22;95223.00;;;19.88;54.32
8292;BME280;4184;42.724;23.308;2022-08-01T03:45:51;95234.09;;;19.90;54.09
8292;BME280;4184;42.724;23.308;2022-08-01T03:48:29;95227.66;;;19.93;54.19
8292;BME280;4184;42.724;23.308;2022-08-01T03:51:00;95237.38;;;19.99;54.22
8292;BME280;4184;42.724;23.308;2022-08-01T03:53:30;95239.78;;;20.00;54.04
8292;BME280;4184;42.724;23.308;2022-08-01T03:56:00;95249.28;;;20.01;53.99
8292;BME280;4184;42.724;23.308;2022-08-01T03:58:29;95243.84;;;20.03;54.16
8292;BME280;4184;42.724;23.308;2022-08-01T04:00:57;95243.03;;;20.02;53.93
8292;BME280;4184;42.724;23.308;2022-08-01T04:03:28;95238.59;;;20.03;54.19
8292;BME280;4184;42.724;23.308;2022-08-01T04:05:55;95239.00;;;20.06;53.99
8292;BME280;4184;42.724;23.308;2022-08-01T04:08:23;95237.00;;;20.08;54.05
8292;BME280;4184;42.724;23.308;2022-08-01T04:11:00;95236.41;;;20.13;53.56
8292;BME280;4184;42.724;23.308;2022-08-01T04:13:28;95240.84;;;20.12;53.73
8292;BME280;4184;42.724;23.308;2022-08-01T04:15:57;95247.16;;;20.25;53.78
8292;BME280;4184;42.724;23.308;2022-08-01T04:18:26;95241.22;;;20.70;52.57
8292;BME280;4184;42.724;23.308;2022-08-01T04:20:53;95246.94;;;21.34;51.16
8292;BME280;4184;42.724;23.308;2022-08-01T04:23:23;95237.47;;;21.97;50.04
8292;BME280;4184;42.724;23.308;2022-08-01T04:25:52;95240.72;;;22.44;49.07
8292;BME280;4184;42.724;23.308;2022-08-01T04:28:21;95244.34;;;22.81;48.05
8292;BME280;4184;42.724;23.308;2022-08-01T04:30:52;95245.53;;;23.17;47.57
8292;BME280;4184;42.724;23.308;2022-08-01T04:33:21;95234.31;;;23.46;46.80
8292;BME280;4184;42.724;23.308;2022-08-01T04:35:52;95226.19;;;23.73;46.55
8292;BME280;4184;42.724;23.308;2022-08-01T04:38:22;95238.78;;;24.07;45.95
8292;BME280;4184;42.724;23.308;2022-08-01T04:40:53;95233.34;;;24.39;44.98
8292;BME280;4184;42.724;23.308;2022-08-01T04:43:21;95242.56;;;24.78;44.43
8292;BME280;4184;42.724;23.308;2022-08-01T04:45:50;95248.41;;;25.10;43.76
8292;BME280;4184;42.724;23.308;2022-08-01T04:48:19;95243.03;;;25.40;42.96
8292;BME280;4184;42.724;23.308;2022-08-01T04:50:46;95236.03;;;25.69;42.67
8292;BME280;4184;42.724;23.308;2022-08-01T04:53:17;95240.28;;;25.82;42.28
8292;BME280;4184;42.724;23.308;2022-08-01T04:55:45;95243.16;;;25.92;41.90
8292;BME280;4184;42.724;23.308;2022-08-01T04:58:13;95247.72;;;26.08;41.58
8292;BME280;4184;42.724;23.308;2022-08-01T05:00:41;95245.16;;;26.25;41.56
8292;BME280;4184;42.724;23.308;2022-08-01T05:03:09;95233.56;;;26.54;41.13
8292;BME280;4184;42.724;23.308;2022-08-01T05:05:37;95231.03;;;26.93;40.56
8292;BME280;4184;42.724;23.308;2022-08-01T05:08:05;95228.50;;;27.32;39.83
8292;BME280;4184;42.724;23.308;2022-08-01T05:10:34;95223.84;;;27.55;39.25
8292;BME280;4184;42.724;23.308;2022-08-01T05:13:02;95233.97;;;27.75;39.17
8292;BME280;4184;42.724;23.308;2022-08-01T05:15:29;95219.38;;;28.00;38.88
8292;BME280;4184;42.724;23.308;2022-08-01T05:17:57;95228.19;;;28.22;38.38
8292;BME280;4184;42.724;23.308;2022-08-01T05:20:24;95224.59;;;28.33;38.03
8292;BME280;4184;42.724;23.308;2022-08-01T05:22:52;95225.47;;;28.39;37.56
8292;BME280;4184;42.724;23.308;2022-08-01T05:25:19;95227.00;;;28.57;37.09
8292;BME280;4184;42.724;23.308;2022-08-01T05:30:55;95218.25;;;28.88;36.70
8292;BME280;4184;42.724;23.308;2022-08-01T05:33:23;95218.41;;;29.03;36.14
8292;BME280;4184;42.724;23.308;2022-08-01T05:35:50;95215.28;;;29.12;35.94
8292;BME280;4184;42.724;23.308;2022-08-01T05:38:18;95225.00;;;29.28;35.83
8292;BME280;4184;42.724;23.308;2022-08-01T05:40:46;95223.44;;;29.37;35.95
8292;BME280;4184;42.724;23.308;2022-08-01T05:43:15;95231.03;;;29.50;35.33
8292;BME280;4184;42.724;23.308;2022-08-01T05:45:42;95223.69;;;29.68;35.26
8292;BME280;4184;42.724;23.308;2022-08-01T05:48:10;95226.41;;;29.78;34.68
8292;BME280;4184;42.724;23.308;2022-08-01T05:50:38;95215.53;;;29.89;34.44
8292;BME280;4184;42.724;23.308;2022-08-01T05:53:05;95226.53;;;30.03;34.87
8292;BME280;4184;42.724;23.308;2022-08-01T05:55:34;95222.88;;;30.14;34.10
8292;BME280;4184;42.724;23.308;2022-08-01T05:58:01;95222.13;;;30.24;33.88
8292;BME280;4184;42.724;23.308;2022-08-01T06:00:30;95220.34;;;30.45;33.77
8292;BME280;4184;42.724;23.308;2022-08-01T06:02:58;95218.28;;;30.72;33.26
8292;BME280;4184;42.724;23.308;2022-08-01T06:05:25;95223.38;;;30.89;32.75
8292;BME280;4184;42.724;23.308;2022-08-01T06:07:53;95228.47;;;30.91;32.50
8292;BME280;4184;42.724;23.308;2022-08-01T06:10:20;95220.72;;;30.94;32.22
8292;BME280;4184;42.724;23.308;2022-08-01T06:12:48;95209.53;;;31.07;32.41
8292;BME280;4184;42.724;23.308;2022-08-01T06:15:15;95220.50;;;31.31;32.25
8292;BME280;4184;42.724;23.308;2022-08-01T06:17:44;95219.38;;;31.53;31.88
8292;BME280;4184;42.724;23.308;2022-08-01T06:20:12;95217.22;;;31.80;31.93
8292;BME280;4184;42.724;23.308;2022-08-01T06:22:39;95217.16;;;32.00;31.51
8292;BME280;4184;42.724;23.308;2022-08-01T06:25:08;95217.66;;;32.08;31.03
8292;BME280;4184;42.724;23.308;2022-08-01T06:27:36;95208.59;;;32.03;30.78
8292;BME280;4184;42.724;23.308;2022-08-01T06:30:04;95209.63;;;32.08;30.96
8292;BME280;4184;42.724;23.308;2022-08-01T06:32:33;95211.25;;;32.14;30.46
8292;BME280;4184;42.724;23.308;2022-08-01T06:35:03;95216.00;;;32.22;30.50
8292;BME280;4184;42.724;23.308;2022-08-01T06:37:31;95210.06;;;32.40;30.68
8292;BME280;4184;42.724;23.308;2022-08-01T06:40:01;95216.13;;;32.61;29.96
8292;BME280;4184;42.724;23.308;2022-08-01T06:42:28;95211.72;;;32.85;29.85
8292;BME280;4184;42.724;23.308;2022-08-01T06:44:57;95193.31;;;33.08;29.75
8292;BME280;4184;42.724;23.308;2022-08-01T06:47:25;95193.97;;;33.29;28.86
8292;BME280;4184;42.724;23.308;2022-08-01T06:49:52;95199.84;;;33.26;29.19
8292;BME280;4184;42.724;23.308;2022-08-01T06:52:21;95201.44;;;33.32;29.19
8292;BME280;4184;42.724;23.308;2022-08-01T06:54:49;95196.00;;;33.42;28.85
8292;BME280;4184;42.724;23.308;2022-08-01T06:57:16;95199.97;;;33.49;29.32
8292;BME280;4184;42.724;23.308;2022-08-01T06:59:44;95191.47;;;33.66;28.66
8292;BME280;4184;42.724;23.308;2022-08-01T07:02:12;95185.25;;;33.71;29.05
8292;BME280;4184;42.724;23.308;2022-08-01T07:04:39;95178.31;;;33.41;28.57
8292;BME280;4184;42.724;23.308;2022-08-01T07:07:07;95185.03;;;33.09;28.61
8292;BME280;4184;42.724;23.308;2022-08-01T07:09:35;95176.25;;;32.99;28.85
8292;BME280;4184;42.724;23.308;2022-08-01T07:12:07;95179.25;;;32.92;29.28
8292;BME280;4184;42.724;23.308;2022-08-01T07:14:34;95185.09;;;32.99;28.84
8292;BME280;4184;42.724;23.308;2022-08-01T07:17:02;95188.16;;;33.16;29.01
8292;BME280;4184;42.724;23.308;2022-08-01T07:19:30;95190.63;;;33.42;28.15
8292;BME280;4184;42.724;23.308;2022-08-01T07:21:57;95188.31;;;33.59;28.26
8292;BME280;4184;42.724;23.308;2022-08-01T07:24:24;95192.38;;;33.86;28.72
8292;BME280;4184;42.724;23.308;2022-08-01T07:26:53;95189.41;;;34.11;28.25
8292;BME280;4184;42.724;23.308;2022-08-01T07:29:24;95180.06;;;34.27;27.74
8292;BME280;4184;42.724;23.308;2022-08-01T07:31:52;95174.13;;;34.30;27.91
8292;BME280;4184;42.724;23.308;2022-08-01T07:34:20;95183.88;;;34.21;27.59
8292;BME280;4184;42.724;23.308;2022-08-01T07:36:48;95174.53;;;34.19;27.50
8292;BME280;4184;42.724;23.308;2022-08-01T07:39:16;95177.06;;;34.10;27.22
8292;BME280;4184;42.724;23.308;2022-08-01T07:41:43;95174.66;;;34.08;27.63
8292;BME280;4184;42.724;23.308;2022-08-01T07:44:12;95183.19;;;34.34;27.27
8292;BME280;4184;42.724;23.308;2022-08-01T07:46:40;95177.72;;;34.63;27.15
8292;BME280;4184;42.724;23.308;2022-08-01T07:49:08;95181.94;;;34.88;27.15
8292;BME280;4184;42.724;23.308;2022-08-01T07:51:35;95191.94;;;35.02;26.87
8292;BME280;4184;42.724;23.308;2022-08-01T07:54:04;95180.81;;;35.08;27.36
8292;BME280;4184;42.724;23.308;2022-08-01T07:56:31;95189.75;;;35.04;26.55
8292;BME280;4184;42.724;23.308;2022-08-01T07:58:59;95174.72;;;35.03;27.14
8292;BME280;4184;42.724;23.308;2022-08-01T08:01:28;95180.00;;;35.08;27.13
8292;BME280;4184;42.724;23.308;2022-08-01T08:03:55;95176.31;;;34.85;26.85
8292;BME280;4184;42.724;23.308;2022-08-01T08:06:23;95187.78;;;34.53;27.68
8292;BME280;4184;42.724;23.308;2022-08-01T08:08:50;95169.97;;;34.19;27.45
8292;BME280;4184;42.724;23.308;2022-08-01T08:11:19;95190.63;;;34.43;27.78
8292;BME280;4184;42.724;23.308;2022-08-01T08:13:47;95181.59;;;34.33;27.36
8292;BME280;4184;42.724;23.308;2022-08-01T08:16:14;95180.06;;;34.27;27.17
8292;BME280;4184;42.724;23.308;2022-08-01T08:18:43;95177.78;;;34.39;26.45
8292;BME280;4184;42.724;23.308;2022-08-01T08:21:10;95165.69;;;34.61;26.80
8292;BME280;4184;42.724;23.308;2022-08-01T08:23:38;95181.50;;;34.62;26.22
8292;BME280;4184;42.724;23.308;2022-08-01T08:26:23;95169.06;;;34.66;26.23
8292;BME280;4184;42.724;23.308;2022-08-01T08:28:51;95176.09;;;34.81;26.37
8292;BME280;4184;42.724;23.308;2022-08-01T08:31:18;95169.16;;;34.99;26.25
8292;BME280;4184;42.724;23.308;2022-08-01T08:33:47;95172.63;;;35.00;25.63
8292;BME280;4184;42.724;23.308;2022-08-01T08:36:15;95153.22;;;35.03;26.06
8292;BME280;4184;42.724;23.308;2022-08-01T08:38:42;95158.50;;;35.08;25.53
8292;BME280;4184;42.724;23.308;2022-08-01T08:41:10;95165.72;;;35.12;25.62
8292;BME280;4184;42.724;23.308;2022-08-01T08:43:38;95158.53;;;35.21;25.46
8292;BME280;4184;42.724;23.308;2022-08-01T08:46:06;95168.34;;;34.98;25.87
8292;BME280;4184;42.724;23.308;2022-08-01T08:48:35;95165.47;;;35.09;25.71
8292;BME280;4184;42.724;23.308;2022-08-01T08:51:05;95166.72;;;35.16;26.07
8292;BME280;4184;42.724;23.308;2022-08-01T08:53:35;95165.22;;;35.24;25.66
8292;BME280;4184;42.724;23.308;2022-08-01T08:56:05;95159.25;;;35.27;25.51
8292;BME280;4184;42.724;23.308;2022-08-01T08:58:35;95151.53;;;35.39;25.33
8292;BME280;4184;42.724;23.308;2022-08-01T09:01:05;95153.00;;;35.32;25.39
8292;BME280;4184;42.724;23.308;2022-08-01T09:03:34;95157.94;;;35.11;25.56
8292;BME280;4184;42.724;23.308;2022-08-01T09:06:03;95156.25;;;35.15;25.50
8292;BME280;4184;42.724;23.308;2022-08-01T09:08:32;95151.53;;;35.07;25.22
8292;BME280;4184;42.724;23.308;2022-08-01T09:10:59;95149.78;;;35.16;25.29
8292;BME280;4184;42.724;23.308;2022-08-01T09:13:27;95147.44;;;35.28;25.10
8292;BME280;4184;42.724;23.308;2022-08-01T09:15:55;95152.81;;;35.28;25.21
8292;BME280;4184;42.724;23.308;2022-08-01T09:18:30;95143.22;;;35.22;25.30
8292;BME280;4184;42.724;23.308;2022-08-01T09:21:14;95147.19;;;35.11;25.72
8292;BME280;4184;42.724;23.308;2022-08-01T09:23:45;95134.16;;;35.18;25.06
8292;BME280;4184;42.724;23.308;2022-08-01T09:26:14;95150.53;;;35.03;25.27
8292;BME280;4184;42.724;23.308;2022-08-01T09:28:43;95140.25;;;34.91;25.03
8292;BME280;4184;42.724;23.308;2022-08-01T09:31:12;95138.22;;;34.64;24.97
8292;BME280;4184;42.724;23.308;2022-08-01T09:33:51;95124.81;;;34.45;25.67
8292;BME280;4184;42.724;23.308;2022-08-01T09:36:21;95137.28;;;34.55;25.76
8292;BME280;4184;42.724;23.308;2022-08-01T09:38:50;95143.41;;;34.60;25.33
8292;BME280;4184;42.724;23.308;2022-08-01T09:41:29;95141.72;;;34.46;25.50
8292;BME280;4184;42.724;23.308;2022-08-01T09:43:58;95141.47;;;34.42;25.62
8292;BME280;4184;42.724;23.308;2022-08-01T09:46:25;95138.53;;;34.44;25.64
8292;BME280;4184;42.724;23.308;2022-08-01T09:49:00;95147.31;;;34.25;25.76
8292;BME280;4184;42.724;23.308;2022-08-01T09:51:31;95127.59;;;34.16;25.82
8292;BME280;4184;42.724;23.308;2022-08-01T09:54:00;95152.63;;;33.64;26.75
8292;BME280;4184;42.724;23.308;2022-08-01T09:56:36;95147.50;;;33.09;27.50
8292;BME280;4184;42.724;23.308;2022-08-01T09:59:04;95147.63;;;33.23;26.76
8292;BME280;4184;42.724;23.308;2022-08-01T10:01:43;95149.25;;;32.90;27.67
8292;BME280;4184;42.724;23.308;2022-08-01T10:04:12;95151.34;;;32.10;28.35
8292;BME280;4184;42.724;23.308;2022-08-01T10:06:44;95156.56;;;31.55;28.68
8292;BME280;4184;42.724;23.308;2022-08-01T10:09:17;95152.84;;;31.61;29.43
8292;BME280;4184;42.724;23.308;2022-08-01T10:11:55;95156.50;;;31.86;29.57
8292;BME280;4184;42.724;23.308;2022-08-01T10:14:25;95129.31;;;31.58;29.17
8292;BME280;4184;42.724;23.308;2022-08-01T10:16:54;95143.00;;;31.31;29.91
8292;BME280;4184;42.724;23.308;2022-08-01T10:19:24;95132.31;;;31.31;29.92
8292;BME280;4184;42.724;23.308;2022-08-01T10:21:54;95133.91;;;31.07;30.09
8292;BME280;4184;42.724;23.308;2022-08-01T10:24:23;95136.63;;;30.76;30.48
8292;BME280;4184;42.724;23.308;2022-08-01T10:26:54;95131.22;;;30.41;31.12
8292;BME280;4184;42.724;23.308;2022-08-01T10:29:25;95133.56;;;30.12;31.58
8292;BME280;4184;42.724;23.308;2022-08-01T10:31:54;95132.63;;;29.86;31.81
8292;BME280;4184;42.724;23.308;2022-08-01T10:34:21;95123.47;;;29.61;31.63
8292;BME280;4184;42.724;23.308;2022-08-01T10:36:49;95130.03;;;29.44;32.49
8292;BME280;4184;42.724;23.308;2022-08-01T10:39:19;95141.34;;;29.24;32.38
8292;BME280;4184;42.724;23.308;2022-08-01T10:41:47;95129.72;;;28.98;32.55
8292;BME280;4184;42.724;23.308;2022-08-01T10:44:16;95128.22;;;28.80;33.40
8292;BME280;4184;42.724;23.308;2022-08-01T10:46:48;95123.63;;;28.70;33.62
8292;BME280;4184;42.724;23.308;2022-08-01T10:49:19;95121.44;;;28.62;33.03
8292;BME280;4184;42.724;23.308;2022-08-01T10:51:49;95123.25;;;28.57;33.18
8292;BME280;4184;42.724;23.308;2022-08-01T10:54:18;95102.97;;;28.51;33.80
8292;BME280;4184;42.724;23.308;2022-08-01T10:56:48;95104.50;;;28.41;33.98
8292;BME280;4184;42.724;23.308;2022-08-01T10:59:21;95113.22;;;28.37;33.89
8292;BME280;4184;42.724;23.308;2022-08-01T11:01:56;95116.63;;;28.32;34.33
8292;BME280;4184;42.724;23.308;2022-08-01T11:04:44;95109.09;;;28.24;34.29
8292;BME280;4184;42.724;23.308;2022-08-01T11:07:18;95095.72;;;28.19;34.49
8292;BME280;4184;42.724;23.308;2022-08-01T11:10:03;95087.72;;;28.14;34.46
8292;BME280;4184;42.724;23.308;2022-08-01T11:12:39;95106.53;;;28.07;34.51
8292;BME280;4184;42.724;23.308;2022-08-01T11:15:23;95103.50;;;27.99;34.79
8292;BME280;4184;42.724;23.308;2022-08-01T11:18:01;95105.06;;;27.95;34.52
8292;BME280;4184;42.724;23.308;2022-08-01T11:20:31;95100.25;;;27.92;34.73
8292;BME280;4184;42.724;23.308;2022-08-01T11:23:23;95099.69;;;27.90;35.09
8292;BME280;4184;42.724;23.308;2022-08-01T11:26:11;95095.91;;;27.85;34.74
8292;BME280;4184;42.724;23.308;2022-08-01T11:28:40;95108.16;;;27.86;35.14
8292;BME280;4184;42.724;23.308;2022-08-01T11:31:27;95108.66;;;27.83;35.10
8292;BME280;4184;42.724;23.308;2022-08-01T11:33:56;95085.75;;;27.77;35.11
8292;BME280;4184;42.724;23.308;2022-08-01T11:36:23;95093.16;;;27.75;34.73
8292;BME280;4184;42.724;23.308;2022-08-01T11:39:18;95092.59;;;27.73;35.12
8292;BME280;4184;42.724;23.308;2022-08-01T11:41:48;95085.19;;;27.75;35.16
8292;BME280;4184;42.724;23.308;2022-08-01T11:44:21;95088.91;;;27.74;35.16
8292;BME280;4184;42.724;23.308;2022-08-01T11:47:02;95096.31;;;27.72;35.01
8292;BME280;4184;42.724;23.308;2022-08-01T11:49:45;95090.75;;;27.74;35.21
8292;BME280;4184;42.724;23.308;2022-08-01T11:52:15;95088.41;;;27.77;35.46
8292;BME280;4184;42.724;23.308;2022-08-01T11:54:45;95093.22;;;27.80;35.21
8292;BME280;4184;42.724;23.308;2022-08-01T11:57:17;95086.59;;;27.83;35.43
8292;BME280;4184;42.724;23.308;2022-08-01T11:59:46;95084.47;;;27.85;35.23
8292;BME280;4184;42.724;23.308;2022-08-01T12:02:23;95085.78;;;27.82;35.59
8292;BME280;4184;42.724;23.308;2022-08-01T12:04:54;95077.78;;;27.77;35.60
8292;BME280;4184;42.724;23.308;2022-08-01T12:07:23;95088.91;;;27.74;35.48
8292;BME280;4184;42.724;23.308;2022-08-01T12:09:58;95083.03;;;27.72;35.19
8292;BME280;4184;42.724;23.308;2022-08-01T12:12:29;95074.25;;;27.72;35.22
8292;BME280;4184;42.724;23.308;2022-08-01T12:15:01;95070.72;;;27.66;35.52
8292;BME280;4184;42.724;23.308;2022-08-01T12:17:31;95071.78;;;27.65;35.16
8292;BME280;4184;42.724;23.308;2022-08-01T12:19:59;95080.56;;;27.66;35.62
8292;BME280;4184;42.724;23.308;2022-08-01T12:22:26;95070.72;;;27.66;35.61
8292;BME280;4184;42.724;23.308;2022-08-01T12:24:54;95075.72;;;27.63;35.47
8292;BME280;4184;42.724;23.308;2022-08-01T12:27:27;95075.41;;;27.59;35.53
8292;BME280;4184;42.724;23.308;2022-08-01T12:29:56;95072.19;;;27.57;35.31
8292;BME280;4184;42.724;23.308;2022-08-01T12:32:26;95071.16;;;27.58;35.63
8292;BME280;4184;42.724;23.308;2022-08-01T12:34:56;95063.47;;;27.62;35.53
8292;BME280;4184;42.724;23.308;2022-08-01T12:37:24;95075.72;;;27.63;35.47
8292;BME280;4184;42.724;23.308;2022-08-01T12:39:51;95074.09;;;27.62;35.62
8292;BME280;4184;42.724;23.308;2022-08-01T12:42:21;95073.31;;;27.61;35.91
8292;BME280;4184;42.724;23.308;2022-08-01T12:44:51;95079.41;;;27.62;36.16
8292;BME280;4184;42.724;23.308;2022-08-01T12:47:21;95079.19;;;27.63;35.62
8292;BME280;4184;42.724;23.308;2022-08-01T12:49:49;95066.22;;;27.67;35.74
8292;BME280;4184;42.724;23.308;2022-08-01T12:52:17;95073.13;;;27.68;35.91
8292;BME280;4184;42.724;23.308;2022-08-01T12:55:09;95079.25;;;27.68;35.92
8292;BME280;4184;42.724;23.308;2022-08-01T12:57:38;95069.44;;;27.69;35.96
8292;BME280;4184;42.724;23.308;2022-08-01T13:00:14;95065.53;;;27.76;35.92
8292;BME280;4184;42.724;23.308;2022-08-01T13:02:43;95063.72;;;27.82;35.64
8292;BME280;4184;42.724;23.308;2022-08-01T13:05:12;95065.88;;;27.85;35.77
8292;BME280;4184;42.724;23.308;2022-08-01T13:07:45;95062.44;;;27.84;35.84
8292;BME280;4184;42.724;23.308;2022-08-01T13:10:14;95063.56;;;27.89;35.43
8292;BME280;4184;42.724;23.308;2022-08-01T13:12:51;95054.28;;;27.91;35.69
8292;BME280;4184;42.724;23.308;2022-08-01T13:15:29;95042.09;;;27.95;35.83
8292;BME280;4184;42.724;23.308;2022-08-01T13:18:02;95061.53;;;28.01;35.73
8292;BME280;4184;42.724;23.308;2022-08-01T13:20:48;95065.50;;;27.98;35.31
8292;BME280;4184;42.724;23.308;2022-08-01T13:23:17;95052.97;;;27.94;35.27
8292;BME280;4184;42.724;23.308;2022-08-01T13:25:49;95058.16;;;27.83;35.49
8292;BME280;4184;42.724;23.308;2022-08-01T13:28:19;95057.81;;;27.75;35.77
8292;BME280;4184;42.724;23.308;2022-08-01T13:30:57;95058.31;;;27.72;35.70